createdAt,value
2019-06-07T00:01:23.071Z,92.21
2019-06-07T00:04:27.379Z,92.26
2019-06-07T00:07:31.691Z,92.25
2019-06-07T00:10:37.105Z,91.73
2019-06-07T00:13:41.676Z,91.66
2019-06-07T00:16:45.986Z,91.75
2019-06-07T00:19:50.556Z,91.77
2019-06-07T00:22:55.030Z,91.94
2019-06-07T00:25:59.331Z,92.41
2019-06-07T00:29:03.722Z,92.41
2019-06-07T00:32:09.268Z,92.44
2019-06-07T00:35:15.483Z,92.77
2019-06-07T00:38:21.895Z,92.77
2019-06-07T00:41:26.061Z,92.74
2019-06-07T00:44:30.380Z,92.73
2019-06-07T00:47:34.719Z,92.53
2019-06-07T00:50:39.024Z,92.93
2019-06-07T00:53:43.316Z,93.03
2019-06-07T00:56:47.636Z,93.37
2019-06-07T00:59:52.037Z,93.37
2019-06-07T01:02:56.349Z,93.48
2019-06-07T01:06:00.643Z,93.48
2019-06-07T01:09:07.560Z,93.32
2019-06-07T01:12:13.814Z,93.50
2019-06-07T01:15:28.545Z,93.55
2019-06-07T01:18:38.213Z,93.99
2019-06-07T01:21:36.333Z,94.33
2019-06-07T01:24:40.638Z,94.42
2019-06-07T01:27:44.975Z,94.43
2019-06-07T01:30:49.224Z,94.10
2019-06-07T01:33:53.542Z,93.97
2019-06-07T01:36:57.832Z,93.97
2019-06-07T01:40:02.212Z,93.63
2019-06-07T01:43:06.506Z,93.63
2019-06-07T01:46:11.900Z,93.56
2019-06-07T01:49:17.112Z,93.53
2019-06-07T01:52:24.841Z,93.50
2019-06-07T01:55:32.622Z,93.48
2019-06-07T01:58:35.009Z,93.39
2019-06-07T02:01:39.392Z,93.28
2019-06-07T02:04:43.716Z,93.12
2019-06-07T02:07:51.610Z,92.69
2019-06-07T02:10:55.928Z,92.79
2019-06-07T02:14:00.238Z,92.79
2019-06-07T02:17:04.655Z,93.01
2019-06-07T02:20:09.639Z,93.01
2019-06-07T02:23:13.983Z,92.87
2019-06-07T02:26:20.438Z,92.83
2019-06-07T02:29:25.449Z,92.71
2019-06-07T02:32:34.670Z,92.61
2019-06-07T02:35:40.326Z,92.69
2019-06-07T02:38:43.080Z,92.63
2019-06-07T02:41:47.431Z,92.63
2019-06-07T02:44:52.917Z,92.48
2019-06-07T02:47:57.378Z,92.37
2019-06-07T02:51:01.674Z,92.44
2019-06-07T02:54:06.243Z,92.64
2019-06-07T02:57:10.553Z,92.59
2019-06-07T03:00:41.757Z,92.56
2019-06-07T03:03:22.727Z,92.56
2019-06-07T03:06:31.836Z,92.55
2019-06-07T03:09:37.218Z,92.57
2019-06-07T03:12:43.070Z,92.57
2019-06-07T03:15:50.163Z,92.49
2019-06-07T03:19:04.895Z,92.47
2019-06-07T03:22:09.184Z,92.61
2019-06-07T03:25:13.486Z,92.33
2019-06-07T03:28:17.797Z,92.33
2019-06-07T03:31:22.097Z,92.27
2019-06-07T03:34:28.885Z,92.22
2019-06-07T03:37:37.577Z,92.37
2019-06-07T03:40:40.199Z,92.37
2019-06-07T03:43:44.687Z,92.22
2019-06-07T03:46:49.116Z,92.20
2019-06-07T03:49:53.519Z,92.43
2019-06-07T03:52:57.826Z,92.63
2019-06-07T03:56:02.285Z,92.86
2019-06-07T03:59:06.650Z,92.97
2019-06-07T04:02:10.959Z,93.04
2019-06-07T04:05:15.356Z,93.16
2019-06-07T04:08:19.664Z,93.20
2019-06-07T04:11:25.092Z,92.93
2019-06-07T04:14:32.833Z,92.93
2019-06-07T04:17:45.388Z,92.94
2019-06-07T04:20:45.211Z,92.85
2019-06-07T04:23:49.522Z,92.62
2019-06-07T04:26:53.829Z,92.07
2019-06-07T04:30:07.195Z,91.27
2019-06-07T04:33:04.166Z,91.49
2019-06-07T04:36:10.181Z,91.65
2019-06-07T04:39:14.679Z,91.57
2019-06-07T04:42:21.217Z,91.61
2019-06-07T04:45:36.275Z,91.73
2019-06-07T04:48:35.998Z,91.73
2019-06-07T04:51:43.461Z,91.36
2019-06-07T04:54:47.798Z,90.94
2019-06-07T04:57:52.165Z,89.62
2019-06-07T05:01:03.038Z,89.62
2019-06-07T05:04:02.759Z,89.90
2019-06-07T05:07:08.956Z,90.25
2019-06-07T05:10:14.444Z,90.25
2019-06-07T05:13:18.865Z,90.26
2019-06-07T05:16:24.973Z,90.26
2019-06-07T05:19:30.588Z,89.54
2019-06-07T05:22:40.845Z,89.54
2019-06-07T05:25:44.738Z,89.45
2019-06-07T05:28:49.312Z,88.98
2019-06-07T05:31:54.119Z,87.90
2019-06-07T05:34:58.542Z,87.84
2019-06-07T05:38:03.059Z,87.84
2019-06-07T05:41:08.104Z,87.79
2019-06-07T05:44:14.998Z,88.37
2019-06-07T05:47:19.039Z,88.44
2019-06-07T05:50:38.920Z,88.44
2019-06-07T05:53:29.452Z,87.71
2019-06-07T05:56:35.715Z,87.71
2019-06-07T05:59:44.305Z,87.97
2019-06-07T06:03:04.347Z,87.50
2019-06-07T06:05:55.604Z,87.50
2019-06-07T06:09:13.493Z,87.47
2019-06-07T06:12:09.544Z,86.96
2019-06-07T06:15:14.272Z,86.96
2019-06-07T06:18:18.664Z,86.16
2019-06-07T06:21:23.052Z,85.45
2019-06-07T06:24:27.448Z,85.23
2019-06-07T06:30:38.237Z,83.80
2019-06-07T06:33:43.440Z,83.35
2019-06-07T06:36:50.353Z,83.26
2019-06-07T06:39:54.934Z,82.89
2019-06-07T06:42:59.517Z,82.79
2019-06-07T06:46:04.069Z,82.59
2019-06-07T06:49:08.518Z,80.99
2019-06-07T06:52:12.906Z,81.27
2019-06-07T06:55:18.574Z,81.88
2019-06-07T06:58:22.870Z,81.16
2019-06-07T07:01:27.214Z,80.38
2019-06-07T07:04:32.144Z,79.74
2019-06-07T07:07:37.028Z,80.02
2019-06-07T07:10:43.341Z,79.62
2019-06-07T07:13:49.876Z,78.81
2019-06-07T07:16:56.507Z,78.04
2019-06-07T07:20:01.215Z,77.03
2019-06-07T07:23:05.830Z,75.85
2019-06-07T07:26:10.231Z,75.27
2019-06-07T07:29:14.592Z,74.76
2019-06-07T07:32:18.921Z,73.92
2019-06-07T07:35:23.776Z,73.78
2019-06-07T07:38:28.344Z,71.86
2019-06-07T07:41:32.731Z,72.05
2019-06-07T07:44:37.096Z,71.79
2019-06-07T07:47:58.335Z,70.32
2019-06-07T07:50:49.807Z,70.14
2019-06-07T07:54:09.382Z,67.76
2019-06-07T07:57:01.169Z,67.70
2019-06-07T08:00:48.854Z,69.12
2019-06-07T08:03:12.633Z,69.69
2019-06-07T08:06:17.195Z,69.06
2019-06-07T08:09:21.604Z,67.99
2019-06-07T08:12:26.272Z,68.46
2019-06-07T08:15:30.712Z,67.98
2019-06-07T08:18:35.176Z,67.81
2019-06-07T08:21:39.574Z,65.87
2019-06-07T08:24:43.945Z,66.64
2019-06-07T08:27:49.509Z,66.97
2019-06-07T08:31:02.420Z,66.72
2019-06-07T08:34:00.790Z,67.28
2019-06-07T08:37:05.422Z,67.01
2019-06-07T08:40:12.407Z,67.35
2019-06-07T08:43:21.030Z,67.26
2019-06-07T08:46:24.410Z,67.36
2019-06-07T08:49:30.552Z,68.52
2019-06-07T08:52:34.867Z,68.27
2019-06-07T08:55:39.226Z,67.31
2019-06-07T08:58:43.544Z,67.44
2019-06-07T09:01:48.841Z,67.82
2019-06-07T09:04:56.420Z,68.10
2019-06-07T09:08:23.583Z,66.84
2019-06-07T09:11:10.893Z,67.25
2019-06-07T09:14:11.407Z,65.64
2019-06-07T09:17:15.720Z,66.77
2019-06-07T09:20:36.315Z,66.25
2019-06-07T09:23:28.132Z,65.31
2019-06-07T09:26:32.932Z,65.25
2019-06-07T09:29:38.575Z,65.57
2019-06-07T09:32:42.902Z,63.66
2019-06-07T09:35:48.634Z,63.82
2019-06-07T09:38:54.473Z,62.57
2019-06-07T09:42:01.596Z,63.16
2019-06-07T09:45:08.859Z,64.26
2019-06-07T09:48:16.126Z,64.20
2019-06-07T09:51:20.399Z,62.81
2019-06-07T09:55:03.044Z,60.98
2019-06-07T09:57:31.358Z,59.55
2019-06-07T10:00:42.115Z,59.12
2019-06-07T10:03:43.208Z,58.37
2019-06-07T10:06:47.513Z,57.85
2019-06-07T10:12:59.434Z,58.06
2019-06-07T10:16:04.778Z,58.25
2019-06-07T10:19:09.943Z,58.13
2019-06-07T10:22:14.398Z,58.23
2019-06-07T10:25:18.718Z,57.17
2019-06-07T10:28:23.307Z,57.59
2019-06-07T10:31:29.662Z,55.50
2019-06-07T10:34:34.055Z,55.38
2019-06-07T10:37:38.364Z,55.98
2019-06-07T10:40:42.834Z,54.20
2019-06-07T10:43:47.119Z,55.39
2019-06-07T10:46:51.441Z,56.75
2019-06-07T10:49:55.749Z,57.58
2019-06-07T10:53:00.045Z,57.24
2019-06-07T10:56:04.898Z,56.76
2019-06-07T10:59:09.822Z,56.46
2019-06-07T11:02:15.317Z,55.26
2019-06-07T11:05:19.805Z,55.67
2019-06-07T11:08:24.119Z,58.80
2019-06-07T11:11:28.570Z,58.43
2019-06-07T11:14:33.045Z,57.73
2019-06-07T11:17:37.347Z,55.18
2019-06-07T11:20:41.650Z,54.09
2019-06-07T11:23:45.940Z,52.36
2019-06-07T11:26:50.298Z,51.87
2019-06-07T11:29:54.841Z,47.63
2019-06-07T11:32:59.361Z,50.50
2019-06-07T11:36:08.649Z,53.15
2019-06-07T11:39:15.196Z,53.78
2019-06-07T11:42:20.201Z,56.88
2019-06-07T11:45:24.518Z,56.26
2019-06-07T11:48:29.937Z,56.05
2019-06-07T11:51:35.327Z,54.38
2019-06-07T11:54:39.908Z,55.73
2019-06-07T11:57:44.336Z,56.45
2019-06-07T12:00:48.696Z,55.93
2019-06-07T12:03:53.102Z,56.12
2019-06-07T12:06:57.453Z,54.54
2019-06-07T12:10:03.290Z,55.04
2019-06-07T12:13:08.357Z,54.58
2019-06-07T12:16:13.541Z,50.56
2019-06-07T12:19:19.885Z,49.52
2019-06-07T12:22:24.285Z,52.85
2019-06-07T12:25:28.899Z,52.52
2019-06-07T12:28:33.308Z,51.40
2019-06-07T12:31:37.629Z,53.42
2019-06-07T12:34:41.949Z,54.11
2019-06-07T12:37:46.303Z,54.46
2019-06-07T12:40:57.692Z,55.96
2019-06-07T12:43:59.144Z,53.85
2019-06-07T12:47:02.987Z,51.86
2019-06-07T12:50:08.160Z,51.91
2019-06-07T12:53:13.626Z,49.33
2019-06-07T12:56:17.990Z,47.55
2019-06-07T12:59:22.379Z,44.89
2019-06-07T13:02:26.683Z,45.70
2019-06-07T13:05:31.079Z,46.53
2019-06-07T13:08:35.475Z,47.46
2019-06-07T13:11:39.879Z,48.87
2019-06-07T13:14:44.394Z,49.67
2019-06-07T13:17:50.448Z,50.88
2019-06-07T13:20:55.667Z,50.34
2019-06-07T13:24:00.286Z,51.34
2019-06-07T13:27:06.083Z,50.59
2019-06-07T13:30:11.455Z,50.33
2019-06-07T13:33:19.069Z,50.67
2019-06-07T13:36:24.368Z,50.75
2019-06-07T13:39:29.833Z,50.37
2019-06-07T13:42:34.256Z,50.78
2019-06-07T13:45:38.626Z,52.01
2019-06-07T13:48:42.990Z,51.78
2019-06-07T13:51:49.092Z,52.10
2019-06-07T13:54:53.477Z,51.80
2019-06-07T13:57:57.775Z,49.59
2019-06-07T14:01:02.154Z,49.88
2019-06-07T14:04:06.447Z,49.02
2019-06-07T14:07:10.742Z,50.11
2019-06-07T14:10:15.697Z,48.78
2019-06-07T14:13:20.122Z,49.97
2019-06-07T14:16:26.304Z,52.76
2019-06-07T14:19:32.140Z,53.66
2019-06-07T14:22:36.567Z,53.42
2019-06-07T14:25:41.473Z,54.64
2019-06-07T14:28:45.763Z,55.28
2019-06-07T14:31:50.467Z,56.09
2019-06-07T14:34:56.220Z,56.16
2019-06-07T14:38:00.753Z,56.70
2019-06-07T14:41:05.094Z,58.63
2019-06-07T14:44:09.421Z,57.90
2019-06-07T14:47:13.751Z,57.63
2019-06-07T14:50:19.221Z,59.04
2019-06-07T14:53:24.513Z,59.04
2019-06-07T14:56:29.530Z,59.23
2019-06-07T14:59:34.917Z,57.92
2019-06-07T15:02:39.904Z,58.22
2019-06-07T15:05:44.485Z,58.57
2019-06-07T15:08:51.421Z,58.64
2019-06-07T15:11:54.886Z,58.48
2019-06-07T15:14:59.179Z,56.05
2019-06-07T15:18:03.568Z,51.93
2019-06-07T15:21:08.121Z,53.15
2019-06-07T15:24:12.419Z,52.28
2019-06-07T15:27:17.062Z,51.68
2019-06-07T15:30:21.861Z,51.62
2019-06-07T15:33:26.192Z,49.99
2019-06-07T15:36:30.474Z,50.57
2019-06-07T15:39:36.644Z,50.82
2019-06-07T15:42:52.055Z,50.87
2019-06-07T15:45:47.550Z,51.64
2019-06-07T15:48:51.875Z,50.16
2019-06-07T15:51:56.171Z,48.87
2019-06-07T15:55:00.480Z,48.88
2019-06-07T15:58:04.770Z,48.74
2019-06-07T16:01:09.071Z,47.87
2019-06-07T16:04:13.370Z,46.56
2019-06-07T16:07:17.661Z,46.95
2019-06-07T16:10:21.955Z,46.91
2019-06-07T16:13:26.384Z,47.30
2019-06-07T16:16:30.781Z,45.01
2019-06-07T16:19:39.250Z,45.03
2019-06-07T16:22:42.290Z,44.48
2019-06-07T16:25:47.722Z,44.00
2019-06-07T16:28:52.041Z,45.82
2019-06-07T16:31:56.396Z,46.44
2019-06-07T16:35:00.694Z,48.15
2019-06-07T16:38:05.319Z,49.88
2019-06-07T16:41:11.429Z,51.89
2019-06-07T16:44:15.834Z,54.60
2019-06-07T16:47:20.142Z,56.28
2019-06-07T16:50:24.975Z,57.95
2019-06-07T16:53:30.360Z,59.35
2019-06-07T16:56:34.656Z,59.62
2019-06-07T16:59:39.026Z,59.27
2019-06-07T17:02:45.026Z,60.14
2019-06-07T17:05:50.569Z,58.78
2019-06-07T17:08:54.949Z,58.40
2019-06-07T17:11:59.394Z,58.89
2019-06-07T17:15:04.037Z,57.55
2019-06-07T17:18:08.406Z,59.89
2019-06-07T17:21:12.740Z,61.62
2019-06-07T17:24:17.043Z,63.44
2019-06-07T17:27:21.365Z,65.38
2019-06-07T17:30:25.902Z,67.65
2019-06-07T17:33:30.192Z,69.32
2019-06-07T17:36:34.500Z,69.70
2019-06-07T17:39:38.799Z,70.81
2019-06-07T17:42:43.105Z,71.83
2019-06-07T17:45:47.598Z,73.38
2019-06-07T17:48:51.879Z,74.00
2019-06-07T17:51:57.391Z,74.64
2019-06-07T17:55:01.676Z,75.06
2019-06-07T17:58:06.020Z,75.94
2019-06-07T18:01:10.323Z,76.81
2019-06-07T18:04:14.618Z,76.80
2019-06-07T18:07:20.838Z,77.45
2019-06-07T18:10:38.299Z,77.90
2019-06-07T18:13:43.941Z,78.15
2019-06-07T18:16:48.462Z,78.65
2019-06-07T18:19:53.039Z,79.10
2019-06-07T18:22:57.431Z,80.18
2019-06-07T18:26:01.956Z,80.41
2019-06-07T18:29:06.365Z,81.07
2019-06-07T18:32:13.476Z,80.60
2019-06-07T18:35:17.908Z,81.04
2019-06-07T18:38:22.239Z,81.80
2019-06-07T18:41:28.337Z,83.00
2019-06-07T18:44:32.644Z,83.34
2019-06-07T18:47:36.950Z,83.91
2019-06-07T18:50:41.350Z,83.58
2019-06-07T18:53:45.645Z,83.72
2019-06-07T18:56:50.755Z,83.23
2019-06-07T18:59:56.462Z,82.42
2019-06-07T19:03:01.055Z,81.86
2019-06-07T19:06:06.941Z,80.64
2019-06-07T19:09:11.195Z,81.40
2019-06-07T19:12:15.507Z,80.88
2019-06-07T19:15:20.722Z,81.21
2019-06-07T19:18:25.149Z,81.15
2019-06-07T19:21:32.440Z,81.08
2019-06-07T19:24:38.458Z,81.15
2019-06-07T19:27:42.771Z,81.32
2019-06-07T19:30:47.160Z,81.82
2019-06-07T19:33:51.517Z,81.99
2019-06-07T19:36:55.807Z,82.13
2019-06-07T19:40:00.202Z,81.89
2019-06-07T19:43:05.537Z,81.21
2019-06-07T19:46:09.929Z,81.36
2019-06-07T19:49:14.346Z,81.08
2019-06-07T19:52:18.724Z,81.54
2019-06-07T19:55:23.044Z,80.90
2019-06-07T19:58:27.406Z,80.43
2019-06-07T20:01:31.665Z,78.44
2019-06-07T20:04:35.955Z,78.47
2019-06-07T20:07:40.500Z,78.37
2019-06-07T20:10:44.892Z,78.06
2019-06-07T20:13:50.279Z,77.93
2019-06-07T20:16:55.185Z,78.08
2019-06-07T20:20:00.528Z,77.69
2019-06-07T20:23:05.394Z,77.13
2019-06-07T20:26:10.937Z,76.94
2019-06-07T20:29:25.902Z,77.23
2019-06-07T20:32:21.684Z,77.41
2019-06-07T20:35:25.978Z,76.69
2019-06-07T20:38:31.392Z,76.72
2019-06-07T20:41:35.692Z,76.76
2019-06-07T20:44:40.025Z,76.66
2019-06-07T20:47:44.325Z,76.50
2019-06-07T20:50:49.065Z,76.32
2019-06-07T20:53:53.414Z,75.96
2019-06-07T20:56:58.816Z,75.26
2019-06-07T21:00:12.229Z,75.10
2019-06-07T21:03:09.701Z,75.27
2019-06-07T21:06:15.321Z,75.98
2019-06-07T21:09:19.647Z,76.18
2019-06-07T21:12:24.184Z,76.95
2019-06-07T21:15:28.659Z,77.03
2019-06-07T21:18:33.002Z,77.99
2019-06-07T21:21:39.125Z,78.47
2019-06-07T21:24:43.430Z,79.17
2019-06-07T21:27:47.718Z,79.85
2019-06-07T21:30:53.588Z,80.27
2019-06-07T21:33:57.907Z,81.29
2019-06-07T21:37:05.565Z,82.26
2019-06-07T21:40:10.550Z,82.70
2019-06-07T21:43:14.873Z,83.13
2019-06-07T21:46:20.643Z,83.88
2019-06-07T21:49:25.238Z,84.40
2019-06-07T21:52:29.687Z,85.09
2019-06-07T21:55:34.013Z,85.65
2019-06-07T21:58:38.408Z,85.91
2019-06-07T22:01:42.771Z,86.17
2019-06-07T22:04:47.110Z,86.35
2019-06-07T22:07:51.472Z,87.36
2019-06-07T22:10:57.263Z,87.94
2019-06-07T22:14:04.156Z,88.45
2019-06-07T22:17:10.509Z,88.79
2019-06-07T22:20:15.142Z,89.03
2019-06-07T22:23:19.514Z,89.05
2019-06-07T22:26:23.822Z,89.13
2019-06-07T22:29:28.173Z,89.35
2019-06-07T22:32:32.463Z,89.61
2019-06-07T22:35:38.210Z,89.98
2019-06-07T22:38:42.512Z,90.08
2019-06-07T22:41:46.811Z,89.98
2019-06-07T22:44:51.129Z,90.10
2019-06-07T22:47:55.529Z,90.55
2019-06-07T22:51:01.501Z,90.67
2019-06-07T22:54:05.842Z,90.71
2019-06-07T22:57:19.840Z,90.99
2019-06-07T23:00:25.468Z,91.16
2019-06-07T23:03:29.762Z,91.35
2019-06-07T23:06:34.175Z,91.40
2019-06-07T23:09:38.483Z,91.87
2019-06-07T23:12:42.794Z,91.80
2019-06-07T23:15:47.128Z,91.83
2019-06-07T23:18:51.431Z,90.80
2019-06-07T23:21:55.730Z,89.79
2019-06-07T23:25:00.027Z,88.64
2019-06-07T23:28:04.391Z,87.26
2019-06-07T23:31:08.697Z,85.60
2019-06-07T23:34:13.059Z,85.38
2019-06-07T23:37:17.313Z,85.90
2019-06-07T23:40:21.686Z,86.59
2019-06-07T23:43:26.059Z,88.13
2019-06-07T23:46:30.506Z,89.64
2019-06-07T23:49:34.806Z,90.19
2019-06-07T23:52:39.433Z,91.59
2019-06-07T23:55:47.498Z,92.50
2019-06-07T23:58:51.811Z,93.10
